sensor_id;sensor_type;location;lat;lon;timestamp;P1;durP1;ratioP1;P2;durP2;ratioP2
46042;SDS011;32533;-33.854;18.542;2022-09-09T00:09:25;6.00;;;1.48;;
46042;SDS011;32533;-33.854;18.542;2022-09-09T00:12:28;7.80;;;1.40;;
46042;SDS011;32533;-33.854;18.542;2022-09-09T00:15:07;5.13;;;2.30;;
46042;SDS011;32533;-33.854;18.542;2022-09-09T00:17:48;14.27;;;2.90;;
46042;SDS011;32533;-33.854;18.542;2022-09-09T00:20:32;5.10;;;1.58;;
46042;SDS011;32533;-33.854;18.542;2022-09-09T00:23:18;5.15;;;1.83;;
46042;SDS011;32533;-33.854;18.542;2022-09-09T00:28:28;6.40;;;1.52;;
46042;SDS011;32533;-33.854;18.542;2022-09-09T00:30:59;1.92;;;0.95;;
46042;SDS011;32533;-33.854;18.542;2022-09-09T00:33:39;5.47;;;1.45;;
46042;SDS011;32533;-33.854;18.542;2022-09-09T00:36:09;4.75;;;1.98;;
46042;SDS011;32533;-33.854;18.542;2022-09-09T00:38:51;7.18;;;3.08;;
46042;SDS011;32533;-33.854;18.542;2022-09-09T00:41:22;9.30;;;1.77;;
46042;SDS011;32533;-33.854;18.542;2022-09-09T00:44:03;6.63;;;1.58;;
46042;SDS011;32533;-33.854;18.542;2022-09-09T00:52:28;12.55;;;1.92;;
46042;SDS011;32533;-33.854;18.542;2022-09-09T00:55:16;5.85;;;1.40;;
46042;SDS011;32533;-33.854;18.542;2022-09-09T00:57:52;8.18;;;2.25;;
46042;SDS011;32533;-33.854;18.542;2022-09-09T01:03:33;8.13;;;2.20;;
46042;SDS011;32533;-33.854;18.542;2022-09-09T01:06:04;4.90;;;1.75;;
46042;SDS011;32533;-33.854;18.542;2022-09-09T01:19:55;7.45;;;1.88;;
46042;SDS011;32533;-33.854;18.542;2022-09-09T01:22:34;10.77;;;2.08;;
46042;SDS011;32533;-33.854;18.542;2022-09-09T01:25:22;5.53;;;1.83;;
46042;SDS011;32533;-33.854;18.542;2022-09-09T01:27:56;5.57;;;1.92;;
46042;SDS011;32533;-33.854;18.542;2022-09-09T01:30:28;7.55;;;1.85;;
46042;SDS011;32533;-33.854;18.542;2022-09-09T01:32:57;11.90;;;2.70;;
46042;SDS011;32533;-33.854;18.542;2022-09-09T01:35:35;6.60;;;1.60;;
46042;SDS011;32533;-33.854;18.542;2022-09-09T01:38:16;8.32;;;2.13;;
46042;SDS011;32533;-33.854;18.542;2022-09-09T01:40:43;8.13;;;3.35;;
46042;SDS011;32533;-33.854;18.542;2022-09-09T01:43:10;6.88;;;1.60;;
46042;SDS011;32533;-33.854;18.542;2022-09-09T01:45:37;7.95;;;1.55;;
46042;SDS011;32533;-33.854;18.542;2022-09-09T01:48:06;6.90;;;1.83;;
46042;SDS011;32533;-33.854;18.542;2022-09-09T01:50:33;4.75;;;1.58;;
46042;SDS011;32533;-33.854;18.542;2022-09-09T01:52:59;6.28;;;1.10;;
46042;SDS011;32533;-33.854;18.542;2022-09-09T01:55:37;10.80;;;1.60;;
46042;SDS011;32533;-33.854;18.542;2022-09-09T02:00:41;5.72;;;1.73;;
46042;SDS011;32533;-33.854;18.542;2022-09-09T02:03:24;4.55;;;1.58;;
46042;SDS011;32533;-33.854;18.542;2022-09-09T02:06:00;6.50;;;2.53;;
46042;SDS011;32533;-33.854;18.542;2022-09-09T02:13:43;4.95;;;1.40;;
46042;SDS011;32533;-33.854;18.542;2022-09-09T02:16:17;4.93;;;1.90;;
46042;SDS011;32533;-33.854;18.542;2022-09-09T02:19:11;6.07;;;1.50;;
46042;SDS011;32533;-33.854;18.542;2022-09-09T02:21:50;13.32;;;2.00;;
46042;SDS011;32533;-33.854;18.542;2022-09-09T02:24:20;6.85;;;1.75;;
46042;SDS011;32533;-33.854;18.542;2022-09-09T02:26:49;6.72;;;2.22;;
46042;SDS011;32533;-33.854;18.542;2022-09-09T02:29:22;3.83;;;1.55;;
46042;SDS011;32533;-33.854;18.542;2022-09-09T02:31:57;6.85;;;1.83;;
46042;SDS011;32533;-33.854;18.542;2022-09-09T02:34:28;5.38;;;2.00;;
46042;SDS011;32533;-33.854;18.542;2022-09-09T02:36:57;4.10;;;2.00;;
46042;SDS011;32533;-33.854;18.542;2022-09-09T02:39:26;8.55;;;1.75;;
46042;SDS011;32533;-33.854;18.542;2022-09-09T02:41:52;5.70;;;2.05;;
46042;SDS011;32533;-33.854;18.542;2022-09-09T02:44:19;6.90;;;1.88;;
46042;SDS011;32533;-33.854;18.542;2022-09-09T02:46:57;3.78;;;2.22;;
46042;SDS011;32533;-33.854;18.542;2022-09-09T02:52:26;6.65;;;1.70;;
46042;SDS011;32533;-33.854;18.542;2022-09-09T02:55:02;5.93;;;2.50;;
46042;SDS011;32533;-33.854;18.542;2022-09-09T02:57:34;7.00;;;1.67;;
46042;SDS011;32533;-33.854;18.542;2022-09-09T03:00:03;4.47;;;2.03;;
46042;SDS011;32533;-33.854;18.542;2022-09-09T03:02:30;5.97;;;2.58;;
46042;SDS011;32533;-33.854;18.542;2022-09-09T03:04:57;3.25;;;1.48;;
46042;SDS011;32533;-33.854;18.542;2022-09-09T03:07:23;6.78;;;1.67;;
46042;SDS011;32533;-33.854;18.542;2022-09-09T03:09:50;7.43;;;2.20;;
46042;SDS011;32533;-33.854;18.542;2022-09-09T03:12:19;3.53;;;1.65;;
46042;SDS011;32533;-33.854;18.542;2022-09-09T03:14:45;8.52;;;1.33;;
46042;SDS011;32533;-33.854;18.542;2022-09-09T03:17:12;7.50;;;2.17;;
46042;SDS011;32533;-33.854;18.542;2022-09-09T03:19:38;9.88;;;2.25;;
46042;SDS011;32533;-33.854;18.542;2022-09-09T03:22:05;4.25;;;1.65;;
46042;SDS011;32533;-33.854;18.542;2022-09-09T03:24:32;9.88;;;2.13;;
46042;SDS011;32533;-33.854;18.542;2022-09-09T03:26:58;11.82;;;3.05;;
46042;SDS011;32533;-33.854;18.542;2022-09-09T03:29:24;14.70;;;2.58;;
46042;SDS011;32533;-33.854;18.542;2022-09-09T03:31:51;6.70;;;1.80;;
46042;SDS011;32533;-33.854;18.542;2022-09-09T03:34:17;5.78;;;1.73;;
46042;SDS011;32533;-33.854;18.542;2022-09-09T03:36:44;7.35;;;2.95;;
46042;SDS011;32533;-33.854;18.542;2022-09-09T03:39:50;6.38;;;1.50;;
46042;SDS011;32533;-33.854;18.542;2022-09-09T03:42:56;6.80;;;1.23;;
46042;SDS011;32533;-33.854;18.542;2022-09-09T03:46:02;10.95;;;1.83;;
46042;SDS011;32533;-33.854;18.542;2022-09-09T03:49:09;16.77;;;2.45;;
46042;SDS011;32533;-33.854;18.542;2022-09-09T03:52:15;11.95;;;2.72;;
46042;SDS011;32533;-33.854;18.542;2022-09-09T03:55:21;6.32;;;2.20;;
46042;SDS011;32533;-33.854;18.542;2022-09-09T03:58:34;9.88;;;1.55;;
46042;SDS011;32533;-33.854;18.542;2022-09-09T04:01:39;8.10;;;1.98;;
46042;SDS011;32533;-33.854;18.542;2022-09-09T04:04:46;4.30;;;1.67;;
46042;SDS011;32533;-33.854;18.542;2022-09-09T04:07:52;9.40;;;2.08;;
46042;SDS011;32533;-33.854;18.542;2022-09-09T04:10:59;24.13;;;10.55;;
46042;SDS011;32533;-33.854;18.542;2022-09-09T04:14:04;19.85;;;9.80;;
46042;SDS011;32533;-33.854;18.542;2022-09-09T04:17:10;9.55;;;4.28;;
46042;SDS011;32533;-33.854;18.542;2022-09-09T04:20:17;19.45;;;3.13;;
46042;SDS011;32533;-33.854;18.542;2022-09-09T04:23:23;9.40;;;3.25;;
46042;SDS011;32533;-33.854;18.542;2022-09-09T04:26:29;4.13;;;1.65;;
46042;SDS011;32533;-33.854;18.542;2022-09-09T04:29:35;4.57;;;2.35;;
46042;SDS011;32533;-33.854;18.542;2022-09-09T04:32:41;6.75;;;1.98;;
46042;SDS011;32533;-33.854;18.542;2022-09-09T04:35:07;7.75;;;2.85;;
46042;SDS011;32533;-33.854;18.542;2022-09-09T04:37:34;5.90;;;2.22;;
46042;SDS011;32533;-33.854;18.542;2022-09-09T04:40:43;14.77;;;2.83;;
46042;SDS011;32533;-33.854;18.542;2022-09-09T04:43:49;15.45;;;8.73;;
46042;SDS011;32533;-33.854;18.542;2022-09-09T04:46:55;14.02;;;5.55;;
46042;SDS011;32533;-33.854;18.542;2022-09-09T04:49:21;11.30;;;5.90;;
46042;SDS011;32533;-33.854;18.542;2022-09-09T04:51:49;6.68;;;3.67;;
46042;SDS011;32533;-33.854;18.542;2022-09-09T04:54:15;6.18;;;2.22;;
46042;SDS011;32533;-33.854;18.542;2022-09-09T04:56:41;8.90;;;2.83;;
46042;SDS011;32533;-33.854;18.542;2022-09-09T04:59:08;7.80;;;2.47;;
46042;SDS011;32533;-33.854;18.542;2022-09-09T05:01:35;5.20;;;2.17;;
46042;SDS011;32533;-33.854;18.542;2022-09-09T05:04:02;9.88;;;2.63;;
46042;SDS011;32533;-33.854;18.542;2022-09-09T05:06:28;7.47;;;2.78;;
46042;SDS011;32533;-33.854;18.542;2022-09-09T05:08:58;6.95;;;2.50;;
46042;SDS011;32533;-33.854;18.542;2022-09-09T05:11:26;7.80;;;3.58;;
46042;SDS011;32533;-33.854;18.542;2022-09-09T05:13:54;10.75;;;2.63;;
46042;SDS011;32533;-33.854;18.542;2022-09-09T05:16:22;10.18;;;3.22;;
46042;SDS011;32533;-33.854;18.542;2022-09-09T05:18:48;9.13;;;2.47;;
46042;SDS011;32533;-33.854;18.542;2022-09-09T05:21:17;7.05;;;2.40;;
46042;SDS011;32533;-33.854;18.542;2022-09-09T05:23:45;7.22;;;2.85;;
46042;SDS011;32533;-33.854;18.542;2022-09-09T05:26:13;8.15;;;2.63;;
46042;SDS011;32533;-33.854;18.542;2022-09-09T05:28:44;11.13;;;3.15;;
46042;SDS011;32533;-33.854;18.542;2022-09-09T05:31:11;8.10;;;3.47;;
46042;SDS011;32533;-33.854;18.542;2022-09-09T05:33:40;13.43;;;3.78;;
46042;SDS011;32533;-33.854;18.542;2022-09-09T05:36:09;10.20;;;3.33;;
46042;SDS011;32533;-33.854;18.542;2022-09-09T05:38:40;5.00;;;2.53;;
46042;SDS011;32533;-33.854;18.542;2022-09-09T05:41:07;10.93;;;2.88;;
46042;SDS011;32533;-33.854;18.542;2022-09-09T05:43:36;16.73;;;2.78;;
46042;SDS011;32533;-33.854;18.542;2022-09-09T05:48:32;9.20;;;2.95;;
46042;SDS011;32533;-33.854;18.542;2022-09-09T05:51:00;9.70;;;2.60;;
46042;SDS011;32533;-33.854;18.542;2022-09-09T05:53:28;9.55;;;3.53;;
46042;SDS011;32533;-33.854;18.542;2022-09-09T05:56:03;10.98;;;2.83;;
46042;SDS011;32533;-33.854;18.542;2022-09-09T05:58:31;10.85;;;4.25;;
46042;SDS011;32533;-33.854;18.542;2022-09-09T06:01:03;6.45;;;2.38;;
46042;SDS011;32533;-33.854;18.542;2022-09-09T06:03:30;11.70;;;4.03;;
46042;SDS011;32533;-33.854;18.542;2022-09-09T06:05:57;9.95;;;3.20;;
46042;SDS011;32533;-33.854;18.542;2022-09-09T06:08:25;11.70;;;4.43;;
46042;SDS011;32533;-33.854;18.542;2022-09-09T06:10:51;6.25;;;3.22;;
46042;SDS011;32533;-33.854;18.542;2022-09-09T06:13:18;9.57;;;3.88;;
46042;SDS011;32533;-33.854;18.542;2022-09-09T06:15:51;15.23;;;3.47;;
46042;SDS011;32533;-33.854;18.542;2022-09-09T06:18:18;9.00;;;4.25;;
46042;SDS011;32533;-33.854;18.542;2022-09-09T06:20:54;10.57;;;3.30;;
46042;SDS011;32533;-33.854;18.542;2022-09-09T06:23:32;12.68;;;4.60;;
46042;SDS011;32533;-33.854;18.542;2022-09-09T06:26:03;8.02;;;4.22;;
46042;SDS011;32533;-33.854;18.542;2022-09-09T06:28:35;9.95;;;2.58;;
46042;SDS011;32533;-33.854;18.542;2022-09-09T06:31:09;7.55;;;2.17;;
46042;SDS011;32533;-33.854;18.542;2022-09-09T06:33:37;6.43;;;2.40;;
46042;SDS011;32533;-33.854;18.542;2022-09-09T06:36:25;6.25;;;1.83;;
46042;SDS011;32533;-33.854;18.542;2022-09-09T06:38:53;5.72;;;2.92;;
46042;SDS011;32533;-33.854;18.542;2022-09-09T06:41:21;7.60;;;2.50;;
46042;SDS011;32533;-33.854;18.542;2022-09-09T06:43:48;12.63;;;3.13;;
46042;SDS011;32533;-33.854;18.542;2022-09-09T06:46:16;7.00;;;2.35;;
46042;SDS011;32533;-33.854;18.542;2022-09-09T06:48:44;10.63;;;4.25;;
46042;SDS011;32533;-33.854;18.542;2022-09-09T06:51:12;9.32;;;2.65;;
46042;SDS011;32533;-33.854;18.542;2022-09-09T06:53:41;5.47;;;1.83;;
46042;SDS011;32533;-33.854;18.542;2022-09-09T06:58:37;11.20;;;2.55;;
46042;SDS011;32533;-33.854;18.542;2022-09-09T07:01:08;5.95;;;3.50;;
46042;SDS011;32533;-33.854;18.542;2022-09-09T07:03:35;7.07;;;2.58;;
46042;SDS011;32533;-33.854;18.542;2022-09-09T07:06:02;10.70;;;2.33;;
46042;SDS011;32533;-33.854;18.542;2022-09-09T07:08:29;12.35;;;2.25;;
46042;SDS011;32533;-33.854;18.542;2022-09-09T07:11:05;5.70;;;1.77;;
46042;SDS011;32533;-33.854;18.542;2022-09-09T07:13:33;7.57;;;3.33;;
46042;SDS011;32533;-33.854;18.542;2022-09-09T07:16:07;4.43;;;3.92;;
46042;SDS011;32533;-33.854;18.542;2022-09-09T07:18:39;8.82;;;2.85;;
46042;SDS011;32533;-33.854;18.542;2022-09-09T07:21:07;5.55;;;1.90;;
46042;SDS011;32533;-33.854;18.542;2022-09-09T07:23:35;4.85;;;1.65;;
46042;SDS011;32533;-33.854;18.542;2022-09-09T07:26:02;8.40;;;2.00;;
46042;SDS011;32533;-33.854;18.542;2022-09-09T07:28:33;4.78;;;2.22;;
46042;SDS011;32533;-33.854;18.542;2022-09-09T07:31:00;12.63;;;2.33;;
46042;SDS011;32533;-33.854;18.542;2022-09-09T07:33:31;7.13;;;1.67;;
46042;SDS011;32533;-33.854;18.542;2022-09-09T07:36:04;4.93;;;1.27;;
46042;SDS011;32533;-33.854;18.542;2022-09-09T07:38:38;4.47;;;1.55;;
46042;SDS011;32533;-33.854;18.542;2022-09-09T07:41:06;4.68;;;1.88;;
46042;SDS011;32533;-33.854;18.542;2022-09-09T07:43:40;6.47;;;1.83;;
46042;SDS011;32533;-33.854;18.542;2022-09-09T07:46:08;6.93;;;1.92;;
46042;SDS011;32533;-33.854;18.542;2022-09-09T07:48:34;10.27;;;2.85;;
46042;SDS011;32533;-33.854;18.542;2022-09-09T07:51:03;7.15;;;2.25;;
46042;SDS011;32533;-33.854;18.542;2022-09-09T07:53:37;6.55;;;1.80;;
46042;SDS011;32533;-33.854;18.542;2022-09-09T07:56:06;12.23;;;2.95;;
46042;SDS011;32533;-33.854;18.542;2022-09-09T07:58:35;8.07;;;1.95;;
46042;SDS011;32533;-33.854;18.542;2022-09-09T08:01:09;12.70;;;2.42;;
46042;SDS011;32533;-33.854;18.542;2022-09-09T08:03:43;7.75;;;2.22;;
46042;SDS011;32533;-33.854;18.542;2022-09-09T08:06:11;14.13;;;2.65;;
46042;SDS011;32533;-33.854;18.542;2022-09-09T08:08:39;8.02;;;2.10;;
46042;SDS011;32533;-33.854;18.542;2022-09-09T08:11:12;10.77;;;1.70;;
46042;SDS011;32533;-33.854;18.542;2022-09-09T08:13:41;12.23;;;1.33;;
46042;SDS011;32533;-33.854;18.542;2022-09-09T08:16:12;6.45;;;1.92;;
46042;SDS011;32533;-33.854;18.542;2022-09-09T08:21:11;7.18;;;2.20;;
46042;SDS011;32533;-33.854;18.542;2022-09-09T08:23:40;8.73;;;1.73;;
46042;SDS011;32533;-33.854;18.542;2022-09-09T08:26:09;4.50;;;1.40;;
46042;SDS011;32533;-33.854;18.542;2022-09-09T08:28:39;10.30;;;1.80;;
46042;SDS011;32533;-33.854;18.542;2022-09-09T08:31:10;4.88;;;1.85;;
46042;SDS011;32533;-33.854;18.542;2022-09-09T08:33:42;3.85;;;1.67;;
46042;SDS011;32533;-33.854;18.542;2022-09-09T08:36:15;11.40;;;1.83;;
46042;SDS011;32533;-33.854;18.542;2022-09-09T08:38:43;4.80;;;1.65;;
46042;SDS011;32533;-33.854;18.542;2022-09-09T08:41:25;8.23;;;1.70;;
46042;SDS011;32533;-33.854;18.542;2022-09-09T08:58:21;3.78;;;1.83;;
46042;SDS011;32533;-33.854;18.542;2022-09-09T09:03:49;2.20;;;1.20;;
46042;SDS011;32533;-33.854;18.542;2022-09-09T09:11:49;6.53;;;1.50;;
46042;SDS011;32533;-33.854;18.542;2022-09-09T09:14:19;2.70;;;1.33;;
46042;SDS011;32533;-33.854;18.542;2022-09-09T09:16:55;2.70;;;1.88;;
46042;SDS011;32533;-33.854;18.542;2022-09-09T09:19:24;4.43;;;1.40;;
46042;SDS011;32533;-33.854;18.542;2022-09-09T09:21:54;5.15;;;1.50;;
46042;SDS011;32533;-33.854;18.542;2022-09-09T09:24:35;4.55;;;1.15;;
46042;SDS011;32533;-33.854;18.542;2022-09-09T09:30:01;3.03;;;1.20;;
46042;SDS011;32533;-33.854;18.542;2022-09-09T09:32:38;6.00;;;1.83;;
46042;SDS011;32533;-33.854;18.542;2022-09-09T09:35:09;2.42;;;1.08;;
46042;SDS011;32533;-33.854;18.542;2022-09-09T09:37:39;3.15;;;1.20;;
46042;SDS011;32533;-33.854;18.542;2022-09-09T09:40:10;4.25;;;1.45;;
46042;SDS011;32533;-33.854;18.542;2022-09-09T09:42:38;2.85;;;1.05;;
46042;SDS011;32533;-33.854;18.542;2022-09-09T09:45:33;9.38;;;1.98;;
46042;SDS011;32533;-33.854;18.542;2022-09-09T09:48:02;8.45;;;3.50;;
46042;SDS011;32533;-33.854;18.542;2022-09-09T09:50:30;5.50;;;1.73;;
46042;SDS011;32533;-33.854;18.542;2022-09-09T09:52:59;4.32;;;1.05;;
46042;SDS011;32533;-33.854;18.542;2022-09-09T09:55:30;4.28;;;1.15;;
46042;SDS011;32533;-33.854;18.542;2022-09-09T09:58:04;5.35;;;1.45;;
46042;SDS011;32533;-33.854;18.542;2022-09-09T10:00:32;3.75;;;1.20;;
46042;SDS011;32533;-33.854;18.542;2022-09-09T10:03:02;3.45;;;1.20;;
46042;SDS011;32533;-33.854;18.542;2022-09-09T10:05:46;5.93;;;1.25;;
46042;SDS011;32533;-33.854;18.542;2022-09-09T10:08:13;6.30;;;1.83;;
46042;SDS011;32533;-33.854;18.542;2022-09-09T10:11:04;7.05;;;1.60;;
46042;SDS011;32533;-33.854;18.542;2022-09-09T10:16:52;4.22;;;1.00;;
46042;SDS011;32533;-33.854;18.542;2022-09-09T10:19:31;3.70;;;1.33;;
46042;SDS011;32533;-33.854;18.542;2022-09-09T10:24:48;4.20;;;1.50;;
46042;SDS011;32533;-33.854;18.542;2022-09-09T10:37:48;2.60;;;1.50;;
46042;SDS011;32533;-33.854;18.542;2022-09-09T10:48:16;2.80;;;1.30;;
46042;SDS011;32533;-33.854;18.542;2022-09-09T10:59:55;4.85;;;1.65;;
46042;SDS011;32533;-33.854;18.542;2022-09-09T11:02:29;10.32;;;1.80;;
46042;SDS011;32533;-33.854;18.542;2022-09-09T11:05:42;7.30;;;1.67;;
46042;SDS011;32533;-33.854;18.542;2022-09-09T11:07:53;12.20;;;1.70;;
46042;SDS011;32533;-33.854;18.542;2022-09-09T11:15:58;8.68;;;2.20;;
46042;SDS011;32533;-33.854;18.542;2022-09-09T11:18:49;8.30;;;1.58;;
46042;SDS011;32533;-33.854;18.542;2022-09-09T11:21:19;5.72;;;1.92;;
46042;SDS011;32533;-33.854;18.542;2022-09-09T11:23:52;6.22;;;1.95;;
46042;SDS011;32533;-33.854;18.542;2022-09-09T11:26:28;3.05;;;1.67;;
46042;SDS011;32533;-33.854;18.542;2022-09-09T11:32:07;8.10;;;1.95;;
46042;SDS011;32533;-33.854;18.542;2022-09-09T11:40:23;6.03;;;1.33;;
46042;SDS011;32533;-33.854;18.542;2022-09-09T11:43:12;2.63;;;1.40;;
46042;SDS011;32533;-33.854;18.542;2022-09-09T11:45:38;3.45;;;1.23;;
46042;SDS011;32533;-33.854;18.542;2022-09-09T11:48:27;4.88;;;1.15;;
46042;SDS011;32533;-33.854;18.542;2022-09-09T11:51:13;6.55;;;1.63;;
46042;SDS011;32533;-33.854;18.542;2022-09-09T11:53:49;2.88;;;0.90;;
46042;SDS011;32533;-33.854;18.542;2022-09-09T11:59:00;4.22;;;1.27;;
46042;SDS011;32533;-33.854;18.542;2022-09-09T12:01:30;6.20;;;1.90;;
46042;SDS011;32533;-33.854;18.542;2022-09-09T12:04:10;3.30;;;1.20;;
46042;SDS011;32533;-33.854;18.542;2022-09-09T12:06:54;4.25;;;1.00;;
46042;SDS011;32533;-33.854;18.542;2022-09-09T14:37:21;1.58;;;1.08;;
46042;SDS011;32533;-33.854;18.542;2022-09-09T14:39:48;9.20;;;1.42;;
46042;SDS011;32533;-33.854;18.542;2022-09-09T14:42:15;17.38;;;2.00;;
46042;SDS011;32533;-33.854;18.542;2022-09-09T14:44:42;7.50;;;1.17;;
46042;SDS011;32533;-33.854;18.542;2022-09-09T14:47:09;5.10;;;0.98;;
46042;SDS011;32533;-33.854;18.542;2022-09-09T14:49:36;1.45;;;0.93;;
46042;SDS011;32533;-33.854;18.542;2022-09-09T14:52:03;1.77;;;1.05;;
46042;SDS011;32533;-33.854;18.542;2022-09-09T14:54:30;4.85;;;2.05;;
46042;SDS011;32533;-33.854;18.542;2022-09-09T14:56:57;5.53;;;5.03;;
46042;SDS011;32533;-33.854;18.542;2022-09-09T14:59:24;10.95;;;3.50;;
46042;SDS011;32533;-33.854;18.542;2022-09-09T15:01:52;10.07;;;2.38;;
46042;SDS011;32533;-33.854;18.542;2022-09-09T15:04:18;6.40;;;2.63;;
46042;SDS011;32533;-33.854;18.542;2022-09-09T15:06:45;2.80;;;1.92;;
46042;SDS011;32533;-33.854;18.542;2022-09-09T15:09:13;8.82;;;2.13;;
46042;SDS011;32533;-33.854;18.542;2022-09-09T15:11:40;2.92;;;1.58;;
46042;SDS011;32533;-33.854;18.542;2022-09-09T15:14:07;2.40;;;1.30;;
46042;SDS011;32533;-33.854;18.542;2022-09-09T15:16:35;4.07;;;2.53;;
46042;SDS011;32533;-33.854;18.542;2022-09-09T15:19:02;3.00;;;1.52;;
46042;SDS011;32533;-33.854;18.542;2022-09-09T15:21:30;2.65;;;1.52;;
46042;SDS011;32533;-33.854;18.542;2022-09-09T15:23:58;1.48;;;1.38;;
46042;SDS011;32533;-33.854;18.542;2022-09-09T15:27:04;2.47;;;1.63;;
46042;SDS011;32533;-33.854;18.542;2022-09-09T15:30:10;3.97;;;1.50;;
46042;SDS011;32533;-33.854;18.542;2022-09-09T15:33:17;2.72;;;1.45;;
46042;SDS011;32533;-33.854;18.542;2022-09-09T15:36:29;1.38;;;1.20;;
46042;SDS011;32533;-33.854;18.542;2022-09-09T15:42:18;2.60;;;1.30;;
46042;SDS011;32533;-33.854;18.542;2022-09-09T15:45:24;1.67;;;1.15;;
46042;SDS011;32533;-33.854;18.542;2022-09-09T15:51:16;13.52;;;2.13;;
46042;SDS011;32533;-33.854;18.542;2022-09-09T15:54:30;9.02;;;2.45;;
46042;SDS011;32533;-33.854;18.542;2022-09-09T15:57:34;6.13;;;1.48;;
46042;SDS011;32533;-33.854;18.542;2022-09-09T16:00:40;6.38;;;1.73;;
46042;SDS011;32533;-33.854;18.542;2022-09-09T16:03:46;2.60;;;1.70;;
46042;SDS011;32533;-33.854;18.542;2022-09-09T16:07:03;15.35;;;3.28;;
46042;SDS011;32533;-33.854;18.542;2022-09-09T16:10:08;20.40;;;6.00;;
46042;SDS011;32533;-33.854;18.542;2022-09-09T16:13:13;7.30;;;6.60;;
46042;SDS011;32533;-33.854;18.542;2022-09-09T16:16:21;8.65;;;5.80;;
46042;SDS011;32533;-33.854;18.542;2022-09-09T16:19:26;7.18;;;5.28;;
46042;SDS011;32533;-33.854;18.542;2022-09-09T16:22:34;2.78;;;2.58;;
46042;SDS011;32533;-33.854;18.542;2022-09-09T16:25:39;5.03;;;2.78;;
46042;SDS011;32533;-33.854;18.542;2022-09-09T16:28:46;7.03;;;2.78;;
46042;SDS011;32533;-33.854;18.542;2022-09-09T16:31:52;3.72;;;2.20;;
46042;SDS011;32533;-33.854;18.542;2022-09-09T16:35:00;4.78;;;2.25;;
46042;SDS011;32533;-33.854;18.542;2022-09-09T16:38:06;6.43;;;2.15;;
46042;SDS011;32533;-33.854;18.542;2022-09-09T16:41:13;4.20;;;3.17;;
46042;SDS011;32533;-33.854;18.542;2022-09-09T16:44:18;2.05;;;1.85;;
46042;SDS011;32533;-33.854;18.542;2022-09-09T16:47:24;3.97;;;2.03;;
46042;SDS011;32533;-33.854;18.542;2022-09-09T16:50:30;5.47;;;2.40;;
46042;SDS011;32533;-33.854;18.542;2022-09-09T16:53:36;8.25;;;3.58;;
46042;SDS011;32533;-33.854;18.542;2022-09-09T16:56:46;5.80;;;2.70;;
46042;SDS011;32533;-33.854;18.542;2022-09-09T16:59:48;9.85;;;3.25;;
46042;SDS011;32533;-33.854;18.542;2022-09-09T17:02:19;5.78;;;2.13;;
46042;SDS011;32533;-33.854;18.542;2022-09-09T17:04:45;6.28;;;2.83;;
46042;SDS011;32533;-33.854;18.542;2022-09-09T17:07:12;4.63;;;2.78;;
46042;SDS011;32533;-33.854;18.542;2022-09-09T17:09:39;5.20;;;3.08;;
46042;SDS011;32533;-33.854;18.542;2022-09-09T17:12:05;10.07;;;4.45;;
46042;SDS011;32533;-33.854;18.542;2022-09-09T17:14:33;24.33;;;14.98;;
46042;SDS011;32533;-33.854;18.542;2022-09-09T17:17:00;26.23;;;14.95;;
46042;SDS011;32533;-33.854;18.542;2022-09-09T17:19:27;13.02;;;10.75;;
46042;SDS011;32533;-33.854;18.542;2022-09-09T17:21:53;12.50;;;9.20;;
46042;SDS011;32533;-33.854;18.542;2022-09-09T17:24:22;9.93;;;6.75;;
46042;SDS011;32533;-33.854;18.542;2022-09-09T17:26:50;5.50;;;4.93;;
46042;SDS011;32533;-33.854;18.542;2022-09-09T17:29:17;6.50;;;4.80;;
46042;SDS011;32533;-33.854;18.542;2022-09-09T17:31:44;8.27;;;5.22;;
46042;SDS011;32533;-33.854;18.542;2022-09-09T17:34:10;41.35;;;17.15;;
46042;SDS011;32533;-33.854;18.542;2022-09-09T17:36:37;27.27;;;13.32;;
46042;SDS011;32533;-33.854;18.542;2022-09-09T17:39:04;21.23;;;10.93;;
46042;SDS011;32533;-33.854;18.542;2022-09-09T17:41:38;31.95;;;15.70;;
46042;SDS011;32533;-33.854;18.542;2022-09-09T17:44:05;18.45;;;12.80;;
46042;SDS011;32533;-33.854;18.542;2022-09-09T17:46:34;19.00;;;12.60;;
46042;SDS011;32533;-33.854;18.542;2022-09-09T17:49:08;27.35;;;19.33;;
46042;SDS011;32533;-33.854;18.542;2022-09-09T17:51:37;16.85;;;12.20;;
46042;SDS011;32533;-33.854;18.542;2022-09-09T17:54:10;15.68;;;10.48;;
46042;SDS011;32533;-33.854;18.542;2022-09-09T17:56:47;18.30;;;8.27;;
46042;SDS011;32533;-33.854;18.542;2022-09-09T17:59:14;10.98;;;7.75;;
46042;SDS011;32533;-33.854;18.542;2022-09-09T18:01:42;16.70;;;9.65;;
46042;SDS011;32533;-33.854;18.542;2022-09-09T18:04:10;16.27;;;7.97;;
46042;SDS011;32533;-33.854;18.542;2022-09-09T18:06:42;15.85;;;10.60;;
46042;SDS011;32533;-33.854;18.542;2022-09-09T18:09:14;25.45;;;17.90;;
46042;SDS011;32533;-33.854;18.542;2022-09-09T18:11:45;30.35;;;24.10;;
46042;SDS011;32533;-33.854;18.542;2022-09-09T18:14:15;17.10;;;13.85;;
46042;SDS011;32533;-33.854;18.542;2022-09-09T18:16:44;11.55;;;9.75;;
46042;SDS011;32533;-33.854;18.542;2022-09-09T18:19:12;9.18;;;7.63;;
46042;SDS011;32533;-33.854;18.542;2022-09-09T18:21:41;7.00;;;5.78;;
46042;SDS011;32533;-33.854;18.542;2022-09-09T18:24:09;9.60;;;6.43;;
46042;SDS011;32533;-33.854;18.542;2022-09-09T18:26:36;9.90;;;6.00;;
46042;SDS011;32533;-33.854;18.542;2022-09-09T18:29:05;21.27;;;13.20;;
46042;SDS011;32533;-33.854;18.542;2022-09-09T18:31:35;24.75;;;13.80;;
46042;SDS011;32533;-33.854;18.542;2022-09-09T18:34:07;16.35;;;9.15;;
46042;SDS011;32533;-33.854;18.542;2022-09-09T18:36:37;16.13;;;10.90;;
46042;SDS011;32533;-33.854;18.542;2022-09-09T18:39:06;20.40;;;15.35;;
46042;SDS011;32533;-33.854;18.542;2022-09-09T18:41:35;18.23;;;12.93;;
46042;SDS011;32533;-33.854;18.542;2022-09-09T18:44:13;19.90;;;14.68;;
46042;SDS011;32533;-33.854;18.542;2022-09-09T18:46:42;19.10;;;15.07;;
46042;SDS011;32533;-33.854;18.542;2022-09-09T18:49:09;17.88;;;12.43;;
46042;SDS011;32533;-33.854;18.542;2022-09-09T18:51:36;25.52;;;17.08;;
46042;SDS011;32533;-33.854;18.542;2022-09-09T18:54:38;23.60;;;17.85;;
46042;SDS011;32533;-33.854;18.542;2022-09-09T18:56:58;20.05;;;13.73;;
46042;SDS011;32533;-33.854;18.542;2022-09-09T18:59:25;12.18;;;9.63;;
46042;SDS011;32533;-33.854;18.542;2022-09-09T19:01:52;9.32;;;7.40;;
46042;SDS011;32533;-33.854;18.542;2022-09-09T19:04:20;8.45;;;5.95;;
46042;SDS011;32533;-33.854;18.542;2022-09-09T19:06:48;8.25;;;5.18;;
46042;SDS011;32533;-33.854;18.542;2022-09-09T19:09:22;7.10;;;5.55;;
46042;SDS011;32533;-33.854;18.542;2022-09-09T19:11:50;7.50;;;5.57;;
46042;SDS011;32533;-33.854;18.542;2022-09-09T19:14:17;7.50;;;4.70;;
46042;SDS011;32533;-33.854;18.542;2022-09-09T19:16:44;6.45;;;4.78;;
46042;SDS011;32533;-33.854;18.542;2022-09-09T19:19:17;11.77;;;4.95;;
46042;SDS011;32533;-33.854;18.542;2022-09-09T19:21:45;5.32;;;4.82;;
46042;SDS011;32533;-33.854;18.542;2022-09-09T19:24:13;11.65;;;4.65;;
46042;SDS011;32533;-33.854;18.542;2022-09-09T19:26:43;6.78;;;4.97;;
46042;SDS011;32533;-33.854;18.542;2022-09-09T19:29:13;8.70;;;4.47;;
46042;SDS011;32533;-33.854;18.542;2022-09-09T19:31:44;5.57;;;4.65;;
46042;SDS011;32533;-33.854;18.542;2022-09-09T19:34:12;8.27;;;4.47;;
46042;SDS011;32533;-33.854;18.542;2022-09-09T19:36:39;7.13;;;4.38;;
46042;SDS011;32533;-33.854;18.542;2022-09-09T19:39:07;9.45;;;4.53;;
46042;SDS011;32533;-33.854;18.542;2022-09-09T19:41:35;5.40;;;3.17;;
46042;SDS011;32533;-33.854;18.542;2022-09-09T19:44:02;7.25;;;4.38;;
46042;SDS011;32533;-33.854;18.542;2022-09-09T19:46:32;4.45;;;4.05;;